sensor_id;sensor_type;location;lat;lon;timestamp;pressure;altitude;pressure_sealevel;temperature;humidity
35023;BME280;21214;44.912;8.204;2023-01-30T00:02:10;100400.31;;;-0.31;100.00
35023;BME280;21214;44.912;8.204;2023-01-30T00:04:53;100397.16;;;-0.39;100.00
35023;BME280;21214;44.912;8.204;2023-01-30T00:07:31;100398.97;;;-0.42;100.00
35023;BME280;21214;44.912;8.204;2023-01-30T00:09:56;100393.06;;;-0.47;100.00
35023;BME280;21214;44.912;8.204;2023-01-30T00:12:22;100390.47;;;-0.47;100.00
35023;BME280;21214;44.912;8.204;2023-01-30T00:14:48;100388.59;;;-0.42;100.00
35023;BME280;21214;44.912;8.204;2023-01-30T00:17:13;100383.41;;;-0.42;100.00
35023;BME280;21214;44.912;8.204;2023-01-30T00:19:39;100382.47;;;-0.41;100.00
35023;BME280;21214;44.912;8.204;2023-01-30T00:22:04;100383.28;;;-0.38;100.00
35023;BME280;21214;44.912;8.204;2023-01-30T00:24:29;100381.72;;;-0.43;100.00
35023;BME280;21214;44.912;8.204;2023-01-30T00:26:55;100380.09;;;-0.47;100.00
35023;BME280;21214;44.912;8.204;2023-01-30T00:29:20;100374.16;;;-0.49;100.00
35023;BME280;21214;44.912;8.204;2023-01-30T00:31:45;100377.59;;;-0.48;100.00
35023;BME280;21214;44.912;8.204;2023-01-30T00:34:11;100384.69;;;-0.53;100.00
35023;BME280;21214;44.912;8.204;2023-01-30T00:36:36;100383.28;;;-0.63;100.00
35023;BME280;21214;44.912;8.204;2023-01-30T00:39:02;100383.44;;;-0.68;100.00
35023;BME280;21214;44.912;8.204;2023-01-30T00:41:27;100388.66;;;-0.69;100.00
35023;BME280;21214;44.912;8.204;2023-01-30T00:44:12;100383.66;;;-0.74;100.00
35023;BME280;21214;44.912;8.204;2023-01-30T00:47:01;100380.16;;;-0.73;100.00
35023;BME280;21214;44.912;8.204;2023-01-30T00:49:29;100380.25;;;-0.76;100.00
35023;BME280;21214;44.912;8.204;2023-01-30T00:51:54;100381.06;;;-0.74;100.00
35023;BME280;21214;44.912;8.204;2023-01-30T00:54:20;100385.59;;;-0.80;100.00
35023;BME280;21214;44.912;8.204;2023-01-30T00:56:45;100386.66;;;-0.86;100.00
35023;BME280;21214;44.912;8.204;2023-01-30T00:59:11;100382.31;;;-1.12;100.00
35023;BME280;21214;44.912;8.204;2023-01-30T01:01:36;100384.28;;;-1.18;100.00
35023;BME280;21214;44.912;8.204;2023-01-30T01:04:02;100385.03;;;-1.15;100.00
35023;BME280;21214;44.912;8.204;2023-01-30T01:06:27;100378.78;;;-1.09;100.00
35023;BME280;21214;44.912;8.204;2023-01-30T01:08:52;100376.91;;;-1.04;100.00
35023;BME280;21214;44.912;8.204;2023-01-30T01:11:18;100382.44;;;-1.15;100.00
35023;BME280;21214;44.912;8.204;2023-01-30T01:13:53;100384.56;;;-1.28;100.00
35023;BME280;21214;44.912;8.204;2023-01-30T01:16:19;100391.53;;;-1.30;100.00
35023;BME280;21214;44.912;8.204;2023-01-30T01:18:45;100390.22;;;-1.43;100.00
35023;BME280;21214;44.912;8.204;2023-01-30T01:21:10;100393.59;;;-1.41;100.00
35023;BME280;21214;44.912;8.204;2023-01-30T01:23:37;100384.88;;;-1.37;100.00
35023;BME280;21214;44.912;8.204;2023-01-30T01:26:03;100383.16;;;-1.38;100.00
35023;BME280;21214;44.912;8.204;2023-01-30T01:28:28;100382.47;;;-1.43;100.00
35023;BME280;21214;44.912;8.204;2023-01-30T01:30:53;100383.34;;;-1.44;100.00
35023;BME280;21214;44.912;8.204;2023-01-30T01:33:19;100378.19;;;-1.44;100.00
35023;BME280;21214;44.912;8.204;2023-01-30T01:35:44;100374.69;;;-1.43;100.00
35023;BME280;21214;44.912;8.204;2023-01-30T01:38:12;100365.19;;;-1.42;100.00
35023;BME280;21214;44.912;8.204;2023-01-30T01:40:38;100363.19;;;-1.34;100.00
35023;BME280;21214;44.912;8.204;2023-01-30T01:43:22;100360.47;;;-1.30;100.00
35023;BME280;21214;44.912;8.204;2023-01-30T01:45:54;100360.25;;;-1.24;100.00
35023;BME280;21214;44.912;8.204;2023-01-30T01:48:26;100344.63;;;-1.20;100.00
35023;BME280;21214;44.912;8.204;2023-01-30T01:50:55;100354.88;;;-1.17;100.00
35023;BME280;21214;44.912;8.204;2023-01-30T01:53:23;100348.88;;;-1.18;100.00
35023;BME280;21214;44.912;8.204;2023-01-30T01:55:50;100348.41;;;-1.31;100.00
35023;BME280;21214;44.912;8.204;2023-01-30T01:58:18;100345.94;;;-1.35;100.00
35023;BME280;21214;44.912;8.204;2023-01-30T02:00:47;100343.44;;;-1.37;100.00
35023;BME280;21214;44.912;8.204;2023-01-30T02:03:18;100339.09;;;-1.36;100.00
35023;BME280;21214;44.912;8.204;2023-01-30T02:05:45;100340.03;;;-1.39;100.00
35023;BME280;21214;44.912;8.204;2023-01-30T02:08:13;100332.28;;;-1.39;100.00
35023;BME280;21214;44.912;8.204;2023-01-30T02:13:20;100326.59;;;-1.50;100.00
35023;BME280;21214;44.912;8.204;2023-01-30T02:15:46;100327.41;;;-1.48;100.00
35023;BME280;21214;44.912;8.204;2023-01-30T02:18:12;100318.22;;;-1.58;100.00
35023;BME280;21214;44.912;8.204;2023-01-30T02:38:33;100341.88;;;-2.58;100.00
35023;BME280;21214;44.912;8.204;2023-01-30T02:46:00;100346.47;;;-2.37;100.00
35023;BME280;21214;44.912;8.204;2023-01-30T02:48:29;100337.66;;;-2.30;100.00
35023;BME280;21214;44.912;8.204;2023-01-30T02:51:03;100336.84;;;-2.32;100.00
35023;BME280;21214;44.912;8.204;2023-01-30T02:53:33;100340.31;;;-2.33;100.00
35023;BME280;21214;44.912;8.204;2023-01-30T02:55:59;100334.75;;;-2.50;100.00
35023;BME280;21214;44.912;8.204;2023-01-30T02:58:25;100326.47;;;-2.61;100.00
35023;BME280;21214;44.912;8.204;2023-01-30T03:00:58;100328.38;;;-2.69;100.00
35023;BME280;21214;44.912;8.204;2023-01-30T03:06:14;100312.03;;;-2.70;100.00
35023;BME280;21214;44.912;8.204;2023-01-30T03:11:14;100303.59;;;-2.76;100.00
35023;BME280;21214;44.912;8.204;2023-01-30T03:18:30;100288.31;;;-2.53;100.00
35023;BME280;21214;44.912;8.204;2023-01-30T03:20:56;100276.13;;;-2.48;100.00
35023;BME280;21214;44.912;8.204;2023-01-30T03:23:27;100278.53;;;-2.42;100.00
35023;BME280;21214;44.912;8.204;2023-01-30T03:25:52;100270.69;;;-2.39;100.00
35023;BME280;21214;44.912;8.204;2023-01-30T03:28:18;100265.34;;;-2.33;100.00
35023;BME280;21214;44.912;8.204;2023-01-30T03:30:45;100270.38;;;-2.28;100.00
35023;BME280;21214;44.912;8.204;2023-01-30T03:33:12;100274.16;;;-2.40;100.00
35023;BME280;21214;44.912;8.204;2023-01-30T03:35:38;100273.00;;;-2.59;100.00
35023;BME280;21214;44.912;8.204;2023-01-30T03:38:04;100264.06;;;-2.78;100.00
35023;BME280;21214;44.912;8.204;2023-01-30T03:40:29;100262.53;;;-2.85;100.00
35023;BME280;21214;44.912;8.204;2023-01-30T03:42:55;100264.25;;;-2.84;100.00
35023;BME280;21214;44.912;8.204;2023-01-30T03:45:22;100259.84;;;-2.82;100.00
35023;BME280;21214;44.912;8.204;2023-01-30T03:47:47;100251.41;;;-2.88;100.00
35023;BME280;21214;44.912;8.204;2023-01-30T03:50:14;100241.06;;;-2.88;100.00
35023;BME280;21214;44.912;8.204;2023-01-30T03:52:39;100237.56;;;-2.85;100.00
35023;BME280;21214;44.912;8.204;2023-01-30T03:55:10;100240.13;;;-2.83;100.00
35023;BME280;21214;44.912;8.204;2023-01-30T03:57:35;100241.69;;;-2.78;100.00
35023;BME280;21214;44.912;8.204;2023-01-30T04:00:01;100235.41;;;-2.71;100.00
35023;BME280;21214;44.912;8.204;2023-01-30T04:02:28;100238.97;;;-2.73;100.00
35023;BME280;21214;44.912;8.204;2023-01-30T04:04:56;100236.16;;;-2.97;100.00
35023;BME280;21214;44.912;8.204;2023-01-30T04:07:22;100226.50;;;-3.21;100.00
35023;BME280;21214;44.912;8.204;2023-01-30T04:09:49;100221.97;;;-3.13;100.00
35023;BME280;21214;44.912;8.204;2023-01-30T04:12:17;100219.25;;;-3.07;100.00
35023;BME280;21214;44.912;8.204;2023-01-30T04:14:50;100220.06;;;-3.06;100.00
35023;BME280;21214;44.912;8.204;2023-01-30T04:17:34;100202.06;;;-3.08;100.00
35023;BME280;21214;44.912;8.204;2023-01-30T04:20:20;100193.31;;;-3.04;100.00
35023;BME280;21214;44.912;8.204;2023-01-30T04:22:50;100197.56;;;-3.01;100.00
35023;BME280;21214;44.912;8.204;2023-01-30T04:25:16;100192.31;;;-2.98;100.00
35023;BME280;21214;44.912;8.204;2023-01-30T04:27:42;100188.81;;;-2.96;100.00
35023;BME280;21214;44.912;8.204;2023-01-30T04:30:13;100187.09;;;-2.97;100.00
35023;BME280;21214;44.912;8.204;2023-01-30T04:32:40;100188.88;;;-2.99;100.00
35023;BME280;21214;44.912;8.204;2023-01-30T04:35:05;100189.94;;;-3.06;100.00
35023;BME280;21214;44.912;8.204;2023-01-30T04:37:31;100186.91;;;-3.20;100.00
35023;BME280;21214;44.912;8.204;2023-01-30T04:39:57;100187.28;;;-3.35;100.00
35023;BME280;21214;44.912;8.204;2023-01-30T04:42:25;100182.94;;;-3.33;100.00
35023;BME280;21214;44.912;8.204;2023-01-30T04:45:16;100186.13;;;-3.23;100.00
35023;BME280;21214;44.912;8.204;2023-01-30T04:47:42;100195.53;;;-3.21;100.00
35023;BME280;21214;44.912;8.204;2023-01-30T04:50:08;100192.22;;;-3.26;100.00
35023;BME280;21214;44.912;8.204;2023-01-30T04:52:34;100192.38;;;-3.32;100.00
35023;BME280;21214;44.912;8.204;2023-01-30T04:54:59;100193.81;;;-3.22;100.00
35023;BME280;21214;44.912;8.204;2023-01-30T04:57:24;100187.75;;;-3.19;100.00
35023;BME280;21214;44.912;8.204;2023-01-30T04:59:50;100184.28;;;-3.18;100.00
35023;BME280;21214;44.912;8.204;2023-01-30T05:02:17;100196.94;;;-3.11;100.00
35023;BME280;21214;44.912;8.204;2023-01-30T05:04:42;100195.25;;;-3.12;100.00
35023;BME280;21214;44.912;8.204;2023-01-30T05:07:07;100203.91;;;-3.13;100.00
35023;BME280;21214;44.912;8.204;2023-01-30T05:09:33;100200.66;;;-3.19;100.00
35023;BME280;21214;44.912;8.204;2023-01-30T05:11:59;100195.34;;;-3.15;100.00
35023;BME280;21214;44.912;8.204;2023-01-30T05:14:24;100192.06;;;-3.20;100.00
35023;BME280;21214;44.912;8.204;2023-01-30T05:16:49;100193.75;;;-3.19;100.00
35023;BME280;21214;44.912;8.204;2023-01-30T05:19:15;100198.91;;;-3.19;100.00
35023;BME280;21214;44.912;8.204;2023-01-30T05:21:40;100205.75;;;-3.18;100.00
35023;BME280;21214;44.912;8.204;2023-01-30T05:24:06;100209.31;;;-3.22;100.00
35023;BME280;21214;44.912;8.204;2023-01-30T05:26:31;100201.41;;;-3.16;100.00
35023;BME280;21214;44.912;8.204;2023-01-30T05:28:57;100191.00;;;-3.13;100.00
35023;BME280;21214;44.912;8.204;2023-01-30T05:31:22;100188.44;;;-3.13;100.00
35023;BME280;21214;44.912;8.204;2023-01-30T05:33:48;100202.13;;;-3.11;100.00
35023;BME280;21214;44.912;8.204;2023-01-30T05:36:15;100209.94;;;-3.12;100.00
35023;BME280;21214;44.912;8.204;2023-01-30T05:38:41;100210.00;;;-3.15;100.00
35023;BME280;21214;44.912;8.204;2023-01-30T05:41:07;100216.75;;;-3.11;100.00
35023;BME280;21214;44.912;8.204;2023-01-30T05:43:33;100216.00;;;-3.15;100.00
35023;BME280;21214;44.912;8.204;2023-01-30T05:45:59;100224.72;;;-3.19;100.00
35023;BME280;21214;44.912;8.204;2023-01-30T05:48:25;100217.41;;;-3.36;100.00
35023;BME280;21214;44.912;8.204;2023-01-30T05:50:51;100206.09;;;-3.30;100.00
35023;BME280;21214;44.912;8.204;2023-01-30T05:53:17;100204.25;;;-3.25;100.00
35023;BME280;21214;44.912;8.204;2023-01-30T05:55:42;100211.75;;;-3.17;100.00
35023;BME280;21214;44.912;8.204;2023-01-30T05:58:08;100213.25;;;-3.09;100.00
35023;BME280;21214;44.912;8.204;2023-01-30T06:00:33;100206.22;;;-3.04;100.00
35023;BME280;21214;44.912;8.204;2023-01-30T06:02:59;100215.50;;;-2.97;100.00
35023;BME280;21214;44.912;8.204;2023-01-30T06:05:24;100216.19;;;-2.90;100.00
35023;BME280;21214;44.912;8.204;2023-01-30T06:07:49;100213.91;;;-3.01;100.00
35023;BME280;21214;44.912;8.204;2023-01-30T06:10:15;100217.38;;;-3.02;100.00
35023;BME280;21214;44.912;8.204;2023-01-30T06:12:41;100214.72;;;-3.00;100.00
35023;BME280;21214;44.912;8.204;2023-01-30T06:15:06;100213.81;;;-2.98;100.00
35023;BME280;21214;44.912;8.204;2023-01-30T06:17:32;100203.31;;;-2.92;100.00
35023;BME280;21214;44.912;8.204;2023-01-30T06:19:58;100203.13;;;-2.85;100.00
35023;BME280;21214;44.912;8.204;2023-01-30T06:22:23;100206.47;;;-2.82;100.00
35023;BME280;21214;44.912;8.204;2023-01-30T06:24:49;100203.97;;;-2.83;100.00
35023;BME280;21214;44.912;8.204;2023-01-30T06:27:14;100205.75;;;-2.87;100.00
35023;BME280;21214;44.912;8.204;2023-01-30T06:29:40;100204.91;;;-2.88;100.00
35023;BME280;21214;44.912;8.204;2023-01-30T06:32:05;100220.69;;;-2.97;100.00
35023;BME280;21214;44.912;8.204;2023-01-30T06:34:31;100240.91;;;-3.12;100.00
35023;BME280;21214;44.912;8.204;2023-01-30T06:36:56;100240.41;;;-3.26;100.00
35023;BME280;21214;44.912;8.204;2023-01-30T06:39:21;100240.44;;;-3.28;100.00
35023;BME280;21214;44.912;8.204;2023-01-30T06:41:48;100261.19;;;-3.31;100.00
35023;BME280;21214;44.912;8.204;2023-01-30T06:44:14;100264.28;;;-3.52;100.00
35023;BME280;21214;44.912;8.204;2023-01-30T06:46:39;100248.66;;;-3.46;100.00
35023;BME280;21214;44.912;8.204;2023-01-30T06:49:05;100243.44;;;-3.43;100.00
35023;BME280;21214;44.912;8.204;2023-01-30T06:51:30;100229.44;;;-3.35;100.00
35023;BME280;21214;44.912;8.204;2023-01-30T06:53:56;100242.06;;;-3.24;100.00
35023;BME280;21214;44.912;8.204;2023-01-30T06:56:22;100245.38;;;-3.19;100.00
35023;BME280;21214;44.912;8.204;2023-01-30T06:58:49;100235.84;;;-3.17;100.00
35023;BME280;21214;44.912;8.204;2023-01-30T07:01:14;100241.81;;;-3.15;100.00
35023;BME280;21214;44.912;8.204;2023-01-30T07:03:40;100259.84;;;-3.13;100.00
35023;BME280;21214;44.912;8.204;2023-01-30T07:06:05;100261.41;;;-3.40;100.00
35023;BME280;21214;44.912;8.204;2023-01-30T07:08:31;100251.22;;;-3.46;100.00
35023;BME280;21214;44.912;8.204;2023-01-30T07:10:56;100246.06;;;-3.46;100.00
35023;BME280;21214;44.912;8.204;2023-01-30T07:13:21;100247.63;;;-3.39;100.00
35023;BME280;21214;44.912;8.204;2023-01-30T07:15:47;100247.47;;;-3.33;100.00
35023;BME280;21214;44.912;8.204;2023-01-30T07:18:12;100243.75;;;-3.23;100.00
35023;BME280;21214;44.912;8.204;2023-01-30T07:20:38;100229.97;;;-3.22;100.00
35023;BME280;21214;44.912;8.204;2023-01-30T07:23:05;100234.41;;;-3.27;100.00
35023;BME280;21214;44.912;8.204;2023-01-30T07:25:30;100229.97;;;-3.22;100.00
35023;BME280;21214;44.912;8.204;2023-01-30T07:27:57;100229.97;;;-3.22;100.00
35023;BME280;21214;44.912;8.204;2023-01-30T07:30:23;100224.63;;;-3.16;100.00
35023;BME280;21214;44.912;8.204;2023-01-30T07:32:49;100229.66;;;-3.11;100.00
35023;BME280;21214;44.912;8.204;2023-01-30T07:35:15;100227.06;;;-3.10;100.00
35023;BME280;21214;44.912;8.204;2023-01-30T07:37:41;100233.09;;;-3.11;100.00
35023;BME280;21214;44.912;8.204;2023-01-30T07:40:08;100238.97;;;-3.06;100.00
35023;BME280;21214;44.912;8.204;2023-01-30T07:42:34;100239.63;;;-2.98;100.00
35023;BME280;21214;44.912;8.204;2023-01-30T07:45:00;100243.75;;;-2.91;100.00
35023;BME280;21214;44.912;8.204;2023-01-30T07:47:25;100234.19;;;-2.89;100.00
35023;BME280;21214;44.912;8.204;2023-01-30T07:49:50;100224.63;;;-2.83;100.00
35023;BME280;21214;44.912;8.204;2023-01-30T07:52:16;100215.16;;;-2.84;100.00
35023;BME280;21214;44.912;8.204;2023-01-30T07:54:41;100211.03;;;-2.90;100.00
35023;BME280;21214;44.912;8.204;2023-01-30T07:57:07;100211.69;;;-2.83;100.00
35023;BME280;21214;44.912;8.204;2023-01-30T07:59:32;100214.22;;;-2.82;100.00
35023;BME280;21214;44.912;8.204;2023-01-30T08:01:57;100219.31;;;-2.79;100.00
35023;BME280;21214;44.912;8.204;2023-01-30T08:04:23;100223.88;;;-2.89;100.00
35023;BME280;21214;44.912;8.204;2023-01-30T08:06:48;100214.53;;;-2.93;100.00
35023;BME280;21214;44.912;8.204;2023-01-30T08:09:14;100205.00;;;-2.91;100.00
35023;BME280;21214;44.912;8.204;2023-01-30T08:11:39;100196.22;;;-2.83;100.00
35023;BME280;21214;44.912;8.204;2023-01-30T08:14:05;100209.06;;;-2.82;100.00
35023;BME280;21214;44.912;8.204;2023-01-30T08:16:30;100209.03;;;-2.80;100.00
35023;BME280;21214;44.912;8.204;2023-01-30T08:18:56;100195.94;;;-2.74;100.00
35023;BME280;21214;44.912;8.204;2023-01-30T08:21:22;100176.84;;;-2.70;100.00
35023;BME280;21214;44.912;8.204;2023-01-30T08:23:47;100170.78;;;-2.68;100.00
35023;BME280;21214;44.912;8.204;2023-01-30T08:26:13;100167.31;;;-2.67;100.00
35023;BME280;21214;44.912;8.204;2023-01-30T08:28:38;100179.19;;;-2.61;100.00
35023;BME280;21214;44.912;8.204;2023-01-30T08:31:07;100185.78;;;-2.80;100.00
35023;BME280;21214;44.912;8.204;2023-01-30T08:33:33;100198.31;;;-2.98;100.00
35023;BME280;21214;44.912;8.204;2023-01-30T08:35:58;100196.44;;;-2.93;100.00
35023;BME280;21214;44.912;8.204;2023-01-30T08:38:23;100207.28;;;-2.80;100.00
35023;BME280;21214;44.912;8.204;2023-01-30T08:40:49;100201.66;;;-2.65;100.00
35023;BME280;21214;44.912;8.204;2023-01-30T08:43:14;100193.44;;;-2.48;100.00
35023;BME280;21214;44.912;8.204;2023-01-30T08:45:40;100206.59;;;-2.28;100.00
35023;BME280;21214;44.912;8.204;2023-01-30T08:48:05;100217.41;;;-2.15;100.00
35023;BME280;21214;44.912;8.204;2023-01-30T08:50:31;100206.50;;;-1.97;100.00
35023;BME280;21214;44.912;8.204;2023-01-30T08:52:57;100187.88;;;-1.82;100.00
35023;BME280;21214;44.912;8.204;2023-01-30T08:55:26;100182.38;;;-1.71;100.00
35023;BME280;21214;44.912;8.204;2023-01-30T08:57:52;100190.63;;;-1.60;100.00
35023;BME280;21214;44.912;8.204;2023-01-30T09:00:20;100180.84;;;-1.52;100.00
35023;BME280;21214;44.912;8.204;2023-01-30T09:02:45;100183.19;;;-1.44;100.00
35023;BME280;21214;44.912;8.204;2023-01-30T09:05:10;100177.41;;;-1.28;100.00
35023;BME280;21214;44.912;8.204;2023-01-30T09:07:36;100165.69;;;-1.13;100.00
35023;BME280;21214;44.912;8.204;2023-01-30T09:10:01;100162.69;;;-1.02;100.00
35023;BME280;21214;44.912;8.204;2023-01-30T09:12:27;100147.59;;;-0.91;100.00
35023;BME280;21214;44.912;8.204;2023-01-30T09:14:53;100141.19;;;-0.81;100.00
35023;BME280;21214;44.912;8.204;2023-01-30T09:17:20;100133.97;;;-0.73;100.00
35023;BME280;21214;44.912;8.204;2023-01-30T09:19:46;100137.84;;;-0.61;100.00
35023;BME280;21214;44.912;8.204;2023-01-30T09:22:11;100145.19;;;-0.51;100.00
35023;BME280;21214;44.912;8.204;2023-01-30T09:24:37;100149.53;;;-0.51;100.00
35023;BME280;21214;44.912;8.204;2023-01-30T09:27:02;100150.38;;;-0.51;100.00
35023;BME280;21214;44.912;8.204;2023-01-30T09:29:28;100135.63;;;-0.49;100.00
35023;BME280;21214;44.912;8.204;2023-01-30T09:31:54;100131.94;;;-0.43;100.00
35023;BME280;21214;44.912;8.204;2023-01-30T09:34:23;100120.50;;;-0.37;100.00
35023;BME280;21214;44.912;8.204;2023-01-30T09:36:53;100108.31;;;-0.35;100.00
35023;BME280;21214;44.912;8.204;2023-01-30T09:39:19;100100.22;;;-0.28;100.00
35023;BME280;21214;44.912;8.204;2023-01-30T09:41:50;100096.53;;;-0.22;100.00
35023;BME280;21214;44.912;8.204;2023-01-30T09:47:08;100096.16;;;-0.13;100.00
35023;BME280;21214;44.912;8.204;2023-01-30T09:49:38;100110.69;;;-0.09;100.00
35023;BME280;21214;44.912;8.204;2023-01-30T09:52:14;100125.06;;;-0.22;100.00
35023;BME280;21214;44.912;8.204;2023-01-30T09:54:43;100133.63;;;-0.20;100.00
35023;BME280;21214;44.912;8.204;2023-01-30T09:57:19;100142.78;;;-0.12;100.00
35023;BME280;21214;44.912;8.204;2023-01-30T10:04:50;100139.59;;;0.04;100.00
35023;BME280;21214;44.912;8.204;2023-01-30T10:07:22;100122.00;;;0.10;100.00
35023;BME280;21214;44.912;8.204;2023-01-30T10:17:22;100129.28;;;0.43;100.00
35023;BME280;21214;44.912;8.204;2023-01-30T10:25:28;100084.59;;;0.75;100.00
35023;BME280;21214;44.912;8.204;2023-01-30T10:28:18;100059.88;;;0.85;100.00
35023;BME280;21214;44.912;8.204;2023-01-30T10:30:42;100048.00;;;0.98;100.00
35023;BME280;21214;44.912;8.204;2023-01-30T10:33:14;100041.53;;;1.07;100.00
35023;BME280;21214;44.912;8.204;2023-01-30T10:35:42;100025.53;;;1.16;100.00
35023;BME280;21214;44.912;8.204;2023-01-30T10:38:19;100013.84;;;1.24;100.00
35023;BME280;21214;44.912;8.204;2023-01-30T10:40:48;99995.28;;;1.32;100.00
35023;BME280;21214;44.912;8.204;2023-01-30T10:43:25;99987.97;;;1.40;100.00
35023;BME280;21214;44.912;8.204;2023-01-30T10:45:56;99980.69;;;1.47;100.00
35023;BME280;21214;44.912;8.204;2023-01-30T10:48:36;99992.47;;;1.54;100.00
35023;BME280;21214;44.912;8.204;2023-01-30T10:51:25;100004.13;;;1.64;100.00
35023;BME280;21214;44.912;8.204;2023-01-30T10:54:08;99995.06;;;1.71;100.00
35023;BME280;21214;44.912;8.204;2023-01-30T10:56:52;99978.84;;;1.83;100.00
35023;BME280;21214;44.912;8.204;2023-01-30T11:04:35;99981.28;;;2.03;100.00
35023;BME280;21214;44.912;8.204;2023-01-30T11:07:04;99980.78;;;2.13;100.00
35023;BME280;21214;44.912;8.204;2023-01-30T11:09:48;99974.34;;;2.20;100.00
35023;BME280;21214;44.912;8.204;2023-01-30T11:12:15;99960.03;;;2.28;100.00
35023;BME280;21214;44.912;8.204;2023-01-30T11:14:50;99952.50;;;2.39;100.00
35023;BME280;21214;44.912;8.204;2023-01-30T11:17:17;99943.31;;;2.48;100.00
35023;BME280;21214;44.912;8.204;2023-01-30T11:19:43;99927.22;;;2.57;100.00
35023;BME280;21214;44.912;8.204;2023-01-30T11:22:09;99942.00;;;2.72;100.00
35023;BME280;21214;44.912;8.204;2023-01-30T11:24:40;99943.94;;;2.84;100.00
35023;BME280;21214;44.912;8.204;2023-01-30T11:27:10;99913.81;;;2.95;100.00
35023;BME280;21214;44.912;8.204;2023-01-30T11:29:37;99895.97;;;3.03;100.00
35023;BME280;21214;44.912;8.204;2023-01-30T11:32:25;99891.91;;;3.13;100.00
35023;BME280;21214;44.912;8.204;2023-01-30T11:37:37;99879.41;;;3.34;100.00
35023;BME280;21214;44.912;8.204;2023-01-30T11:40:22;99875.16;;;3.47;100.00
35023;BME280;21214;44.912;8.204;2023-01-30T11:42:50;99866.13;;;3.66;100.00
35023;BME280;21214;44.912;8.204;2023-01-30T11:45:18;99865.59;;;3.76;100.00
35023;BME280;21214;44.912;8.204;2023-01-30T11:47:53;99851.13;;;3.84;100.00
35023;BME280;21214;44.912;8.204;2023-01-30T11:50:20;99846.41;;;4.05;100.00
35023;BME280;21214;44.912;8.204;2023-01-30T11:52:48;99844.50;;;4.07;100.00
35023;BME280;21214;44.912;8.204;2023-01-30T11:55:15;99843.97;;;4.16;100.00
35023;BME280;21214;44.912;8.204;2023-01-30T11:57:43;99832.75;;;4.28;100.00
35023;BME280;21214;44.912;8.204;2023-01-30T12:02:44;99831.38;;;4.49;100.00
35023;BME280;21214;44.912;8.204;2023-01-30T12:07:53;99830.25;;;4.80;100.00
35023;BME280;21214;44.912;8.204;2023-01-30T12:10:39;99813.31;;;4.86;100.00
35023;BME280;21214;44.912;8.204;2023-01-30T12:13:27;99808.97;;;4.99;100.00
35023;BME280;21214;44.912;8.204;2023-01-30T12:15:55;99803.84;;;5.10;100.00
35023;BME280;21214;44.912;8.204;2023-01-30T12:18:23;99783.03;;;5.21;100.00
35023;BME280;21214;44.912;8.204;2023-01-30T12:21:01;99783.78;;;5.36;100.00
35023;BME280;21214;44.912;8.204;2023-01-30T12:26:00;99783.69;;;5.63;100.00
35023;BME280;21214;44.912;8.204;2023-01-30T12:31:03;99788.94;;;5.88;100.00
35023;BME280;21214;44.912;8.204;2023-01-30T12:33:31;99792.47;;;6.00;100.00
35023;BME280;21214;44.912;8.204;2023-01-30T12:36:07;99777.84;;;6.08;100.00
35023;BME280;21214;44.912;8.204;2023-01-30T12:43:44;99781.50;;;6.42;100.00
35023;BME280;21214;44.912;8.204;2023-01-30T12:48:52;99774.00;;;6.62;100.00
35023;BME280;21214;44.912;8.204;2023-01-30T13:12:07;99700.84;;;7.38;100.00
35023;BME280;21214;44.912;8.204;2023-01-30T13:19:49;99691.41;;;7.69;99.02
35023;BME280;21214;44.912;8.204;2023-01-30T13:24:45;99684.34;;;7.80;97.91
35023;BME280;21214;44.912;8.204;2023-01-30T13:27:14;99688.72;;;7.91;96.83
35023;BME280;21214;44.912;8.204;2023-01-30T13:29:40;99681.91;;;8.00;97.07
35023;BME280;21214;44.912;8.204;2023-01-30T13:34:48;99684.84;;;8.17;94.28
35023;BME280;21214;44.912;8.204;2023-01-30T13:37:16;99680.50;;;8.28;93.47
35023;BME280;21214;44.912;8.204;2023-01-30T13:42:12;99670.81;;;8.39;91.26
35023;BME280;21214;44.912;8.204;2023-01-30T13:44:39;99669.34;;;8.46;91.78
35023;BME280;21214;44.912;8.204;2023-01-30T13:47:10;99656.91;;;8.48;91.41
35023;BME280;21214;44.912;8.204;2023-01-30T13:49:49;99656.78;;;8.50;91.77
35023;BME280;21214;44.912;8.204;2023-01-30T14:00:34;99632.44;;;8.37;92.21
35023;BME280;21214;44.912;8.204;2023-01-30T14:08:24;99637.19;;;8.11;92.74
35023;BME280;21214;44.912;8.204;2023-01-30T14:10:51;99641.53;;;8.01;94.01
35023;BME280;21214;44.912;8.204;2023-01-30T14:13:17;99646.56;;;7.93;94.80
35023;BME280;21214;44.912;8.204;2023-01-30T14:15:58;99642.66;;;7.87;94.85
35023;BME280;21214;44.912;8.204;2023-01-30T14:18:43;99629.16;;;7.80;95.65
35023;BME280;21214;44.912;8.204;2023-01-30T14:21:13;99624.88;;;7.79;96.35
35023;BME280;21214;44.912;8.204;2023-01-30T14:23:41;99622.50;;;7.76;97.30
35023;BME280;21214;44.912;8.204;2023-01-30T14:26:31;99636.59;;;7.75;97.38
35023;BME280;21214;44.912;8.204;2023-01-30T14:29:05;99634.34;;;7.71;97.69
35023;BME280;21214;44.912;8.204;2023-01-30T14:31:49;99631.94;;;7.68;98.80
35023;BME280;21214;44.912;8.204;2023-01-30T14:34:36;99619.06;;;7.65;99.75
35023;BME280;21214;44.912;8.204;2023-01-30T14:37:15;99617.59;;;7.72;98.81
35023;BME280;21214;44.912;8.204;2023-01-30T14:39:49;99607.22;;;7.70;99.46
35023;BME280;21214;44.912;8.204;2023-01-30T14:42:19;99619.66;;;7.68;99.62
35023;BME280;21214;44.912;8.204;2023-01-30T14:47:30;99633.25;;;7.62;100.00
35023;BME280;21214;44.912;8.204;2023-01-30T14:49:56;99621.94;;;7.62;100.00
35023;BME280;21214;44.912;8.204;2023-01-30T14:52:30;99616.44;;;7.65;100.00
35023;BME280;21214;44.912;8.204;2023-01-30T14:55:00;99616.78;;;7.60;100.00
35023;BME280;21214;44.912;8.204;2023-01-30T14:57:27;99608.22;;;7.58;100.00
35023;BME280;21214;44.912;8.204;2023-01-30T15:00:03;99613.47;;;7.58;100.00
35023;BME280;21214;44.912;8.204;2023-01-30T15:02:30;99608.31;;;7.57;100.00
35023;BME280;21214;44.912;8.204;2023-01-30T15:16:04;99610.84;;;7.58;100.00